Aeroporto :
LOGIN :

Iscrizione | Disclaimer

   EN    FR    IT 

 










Sommario :    VFR   VFR Marginale   IFR   IFR Intensivo   IFR Molto Intensivo
Visibilità : 
Base nubi : 
>= 8 km
>= 3000ft
5 / 8 km
1000 / 3000 ft
1500m / 5 km
500 / 1000 ft
800 / 1500m
200 / 500 ft
< 800m
< 200 ft
Simboli :   Temporali  Nebbia  Neve Forte  Precipitazioni Forti  Vento > 20 kt
SIGMETs :   Varie  Temporali  Ghiacco  Turbolenza  Onda orograficha  Ceneri Vulcaniche







- Altitudine del aeroporto : 17 ft
- Codice IATA : GRQ


EHGG - Groningen Eelde

ULTIMO METAR :
  • 270755Z AUTO 33007KT 300V360 9999 OVC015 15/11 Q1029 TEMPO BKN014

METARs OBSOLETI :
  • 270725Z AUTO 35009KT 300V030 9999 OVC018 15/10 Q1029 NOSIG
  • 270655Z AUTO 33008KT 300V360 9999 OVC016 15/10 Q1029 NOSIG
  • 270625Z AUTO 34009KT 300V030 9999 OVC019 14/10 Q1029 NOSIG
  • 270555Z AUTO 36008KT 320V020 9999 OVC018 14/10 Q1029 NOSIG
  • 270525Z AUTO 33007KT 290V360 9999 OVC019 14/10 Q1029 NOSIG

TAF TAF EHGG
Valido dal 27 a 06 ore il 28 a 12 ore UTC


270502Z 2706/2812 35010KT 9999 BKN018
PROB40 2722/2807 BKN013
Nessun NOTAM noto per questo aeroporto.



MetMap, La meteo Aeronautica in un colpo d'occhio ! - Copyright ORBIFLY Dicembre 2007 - Disclaimer

ORBIFLY MET'MAP TEAM :

Programmazione e sviluppo : Alexandra Zaïnal
Concezione e sviluppo : Baudouin d'Aumeries
Co-Programmazione e sviluppo : Marc-Olivier Méhu
Supporto tecnico e logistico : Manuel Goepfert
Aiuto per la traduzione : Arnaldo La Scala

Contatto : metmap@orbifly.com




FONTI E CREDITI :

   NOAA